Time;durP1;ratioP1;P1;durP2;ratioP2;P2;SDS_P1;SDS_P2;PMS_P1;PMS_P2;Temp;Humidity;BMP_temperature;BMP_pressure;BME280_temperature;BME280_humidity;BME280_pressure;Samples;Min_cycle;Max_cycle;Signal;HPM_P1;HPM_P2
2023/01/07 00:02:16;;;;;;;0.50;0.50;;;9.20;99.90;;;;;;5052627;28;20453;-79
2023/01/07 00:04:43;;;;;;;3.27;0.73;;;9.20;99.90;;;;;;5052838;28;20478;-79
2023/01/07 00:07:10;;;;;;;1.90;0.40;;;9.20;99.90;;;;;;5052864;28;20453;-79
2023/01/07 00:09:36;;;;;;;0.80;0.30;;;9.30;99.90;;;;;;5053025;28;20450;-78
2023/01/07 00:12:03;;;;;;;0.40;0.40;;;9.30;99.90;;;;;;5056672;28;20443;-80
2023/01/07 00:14:30;;;;;;;0.60;0.40;;;9.30;99.90;;;;;;5056425;28;20493;-79
2023/01/07 00:16:57;;;;;;;0.40;0.40;;;9.30;99.90;;;;;;5056658;28;20457;-79
2023/01/07 00:19:25;;;;;;;0.40;0.40;;;9.20;99.90;;;;;;5056194;28;20489;-79
2023/01/07 00:21:52;;;;;;;0.60;0.60;;;9.20;99.90;;;;;;5056229;28;20825;-79
2023/01/07 00:24:18;;;;;;;0.40;0.30;;;9.20;99.90;;;;;;5056649;28;20473;-79
2023/01/07 00:26:45;;;;;;;0.50;0.33;;;9.20;99.90;;;;;;5056134;28;20969;-79
2023/01/07 00:29:12;;;;;;;0.70;0.50;;;9.20;99.90;;;;;;5056421;28;20442;-79
2023/01/07 00:31:40;;;;;;;1.13;0.50;;;9.20;99.90;;;;;;5055995;28;20454;-79
2023/01/07 00:34:08;;;;;;;1.17;0.50;;;9.10;99.90;;;;;;5055948;28;20982;-79
2023/01/07 00:36:38;;;;;;;0.80;0.30;;;9.10;99.90;;;;;;5055892;28;20999;-79
2023/01/07 00:39:08;;;;;;;0.60;0.57;;;9.20;99.90;;;;;;5056201;28;20459;-79
2023/01/07 00:41:35;;;;;;;0.40;0.40;;;9.20;99.90;;;;;;5056014;28;20815;-79
2023/01/07 00:44:03;;;;;;;1.27;0.50;;;9.20;99.90;;;;;;5055765;28;20467;-79
2023/01/07 00:46:29;;;;;;;0.40;0.40;;;9.10;99.90;;;;;;5056100;28;20454;-79
2023/01/07 00:48:56;;;;;;;0.40;0.40;;;9.10;99.90;;;;;;5056348;28;20442;-79
2023/01/07 00:51:23;;;;;;;0.87;0.57;;;9.10;99.90;;;;;;5055984;28;20454;-79
2023/01/07 00:53:51;;;;;;;0.40;0.40;;;9.10;99.90;;;;;;5055868;28;20470;-79
2023/01/07 00:56:18;;;;;;;0.40;0.40;;;9.10;99.90;;;;;;5055713;28;20450;-79
2023/01/07 00:58:45;;;;;;;0.40;0.30;;;9.10;99.90;;;;;;5055773;28;20576;-79
2023/01/07 01:01:12;;;;;;;1.37;0.70;;;9.10;99.90;;;;;;5055877;28;20447;-79
2023/01/07 01:03:40;;;;;;;0.60;0.60;;;9.10;99.90;;;;;;5055589;28;20447;-79
2023/01/07 01:06:12;;;;;;;0.40;0.33;;;9.10;99.90;;;;;;5055643;28;20469;-79
2023/01/07 01:08:41;;;;;;;0.60;0.57;;;9.10;99.90;;;;;;5055688;28;20427;-79
2023/01/07 01:11:11;;;;;;;0.50;0.50;;;9.10;99.90;;;;;;5055301;28;20455;-79
2023/01/07 01:13:39;;;;;;;0.60;0.33;;;9.00;99.90;;;;;;5055144;28;20853;-78
2023/01/07 01:16:08;;;;;;;0.50;0.30;;;9.10;99.90;;;;;;5055498;28;20447;-79
2023/01/07 01:18:35;;;;;;;0.30;0.30;;;9.10;99.90;;;;;;5055296;28;20493;-79
2023/01/07 01:21:04;;;;;;;0.30;0.30;;;9.00;99.90;;;;;;5055353;28;20500;-79
2023/01/07 01:23:32;;;;;;;0.30;0.30;;;9.00;99.90;;;;;;5054774;28;20480;-79
2023/01/07 01:26:03;;;;;;;0.40;0.40;;;9.00;99.90;;;;;;5054981;28;20442;-79
2023/01/07 01:28:32;;;;;;;0.40;0.30;;;9.00;99.90;;;;;;5055790;28;20496;-79
2023/01/07 01:30:58;;;;;;;0.40;0.40;;;8.90;99.90;;;;;;5055156;28;20455;-79
2023/01/07 01:33:25;;;;;;;0.73;0.40;;;9.00;99.90;;;;;;5055162;28;20450;-79
2023/01/07 01:35:52;;;;;;;0.40;0.40;;;9.00;99.90;;;;;;5055039;28;20473;-79
2023/01/07 01:38:19;;;;;;;0.40;0.30;;;8.90;99.90;;;;;;5055044;28;20478;-79
2023/01/07 01:40:46;;;;;;;0.30;0.30;;;9.00;99.90;;;;;;5055023;28;20446;-79
2023/01/07 01:43:32;;;;;;;0.30;0.30;;;9.00;99.90;;;;;;5054928;28;20891;-79
2023/01/07 01:46:02;;;;;;;0.30;0.27;;;9.00;99.90;;;;;;5054944;28;20445;-78
2023/01/07 01:48:29;;;;;;;0.30;0.23;;;9.00;99.90;;;;;;5055175;28;20439;-79
2023/01/07 01:50:56;;;;;;;0.40;0.40;;;9.00;99.90;;;;;;5054904;28;20446;-79
2023/01/07 01:53:26;;;;;;;0.40;0.30;;;9.00;99.90;;;;;;5054757;28;20501;-78
2023/01/07 01:55:58;;;;;;;0.30;0.30;;;9.00;99.90;;;;;;5054604;28;20470;-79
2023/01/07 01:58:29;;;;;;;0.50;0.30;;;9.00;99.90;;;;;;5054685;28;20474;-79
2023/01/07 02:00:58;;;;;;;0.30;0.30;;;9.00;99.90;;;;;;5054703;28;20435;-79
2023/01/07 02:03:27;;;;;;;0.50;0.40;;;9.10;99.90;;;;;;5054599;28;20447;-79
2023/01/07 02:05:54;;;;;;;0.50;0.30;;;9.00;99.90;;;;;;5054752;28;20461;-79
2023/01/07 02:08:22;;;;;;;0.30;0.30;;;9.00;99.90;;;;;;5054242;28;20435;-78
2023/01/07 02:10:56;;;;;;;0.30;0.30;;;9.00;99.90;;;;;;5054418;28;20447;-79
2023/01/07 02:13:34;;;;;;;0.30;0.30;;;9.00;99.90;;;;;;5054195;28;20478;-79
2023/01/07 02:16:12;;;;;;;2.33;0.50;;;9.00;99.90;;;;;;5054352;28;20438;-78
2023/01/07 02:19:04;;;;;;;0.30;0.30;;;9.00;99.90;;;;;;5054249;28;20470;-79
2023/01/07 02:21:42;;;;;;;0.30;0.30;;;9.00;99.90;;;;;;5054308;28;20435;-78
2023/01/07 02:24:35;;;;;;;0.30;0.30;;;9.00;99.90;;;;;;5053936;28;20481;-79
2023/01/07 02:27:26;;;;;;;0.40;0.33;;;9.00;99.90;;;;;;5054122;28;20438;-79
2023/01/07 02:30:35;;;;;;;0.40;0.30;;;9.00;99.90;;;;;;5053855;28;20919;-79
2023/01/07 02:33:28;;;;;;;0.30;0.30;;;9.00;99.90;;;;;;5053497;28;20439;-79
2023/01/07 02:36:35;;;;;;;0.40;0.30;;;9.00;99.90;;;;;;5054512;28;20469;-79
2023/01/07 02:39:12;;;;;;;0.40;0.30;;;9.00;99.90;;;;;;5053922;28;20470;-79
2023/01/07 02:41:49;;;;;;;0.30;0.30;;;9.00;99.90;;;;;;5053599;28;20914;-79
2023/01/07 02:44:25;;;;;;;0.40;0.40;;;9.00;99.90;;;;;;5053820;28;20458;-79
2023/01/07 02:46:57;;;;;;;0.30;0.23;;;9.00;99.90;;;;;;5053839;28;20426;-79
2023/01/07 02:49:25;;;;;;;0.40;0.30;;;8.90;99.90;;;;;;5053763;28;20430;-79
2023/01/07 02:51:52;;;;;;;0.30;0.30;;;9.00;99.90;;;;;;5053679;28;20454;-79
2023/01/07 02:54:22;;;;;;;0.30;0.30;;;9.00;99.90;;;;;;5053367;28;20450;-79
2023/01/07 02:57:08;;;;;;;0.30;0.30;;;9.00;99.90;;;;;;5053615;28;20434;-79
2023/01/07 02:59:53;;;;;;;0.60;0.50;;;8.90;99.90;;;;;;5053458;28;20469;-79
2023/01/07 03:02:33;;;;;;;0.60;0.40;;;9.00;99.90;;;;;;5053624;28;20437;-79
2023/01/07 03:05:19;;;;;;;0.40;0.30;;;9.00;99.90;;;;;;5053536;28;20507;-78
2023/01/07 03:08:04;;;;;;;0.30;0.30;;;9.00;99.90;;;;;;5053197;28;20426;-78
2023/01/07 03:10:37;;;;;;;0.40;0.33;;;9.00;99.90;;;;;;5053536;28;20427;-79
2023/01/07 03:13:07;;;;;;;0.80;0.40;;;8.90;99.90;;;;;;5053018;28;21013;-79
2023/01/07 03:15:39;;;;;;;0.30;0.30;;;8.90;99.90;;;;;;5052902;28;21044;-78
2023/01/07 03:18:10;;;;;;;0.87;0.30;;;8.90;99.90;;;;;;5053153;28;20430;-78
2023/01/07 03:20:41;;;;;;;0.40;0.40;;;8.90;99.90;;;;;;5053520;28;20470;-79
2023/01/07 03:23:10;;;;;;;0.30;0.30;;;8.90;99.90;;;;;;5053414;28;20431;-79
2023/01/07 03:25:41;;;;;;;0.80;0.37;;;8.90;99.90;;;;;;5052878;28;20470;-79
2023/01/07 03:28:11;;;;;;;0.57;0.43;;;8.80;99.90;;;;;;5052956;28;20437;-78
2023/01/07 03:30:38;;;;;;;0.40;0.30;;;8.90;99.90;;;;;;5053468;28;20451;-79
2023/01/07 03:33:12;;;;;;;0.33;0.30;;;8.90;99.90;;;;;;5053241;28;20443;-79
2023/01/07 03:35:43;;;;;;;0.47;0.40;;;8.90;99.90;;;;;;5052867;28;20973;-79
2023/01/07 03:38:11;;;;;;;0.40;0.30;;;8.90;99.90;;;;;;5053195;28;20787;-79
2023/01/07 03:40:38;;;;;;;0.40;0.30;;;8.90;99.90;;;;;;5053009;28;20492;-78
2023/01/07 03:43:04;;;;;;;0.40;0.40;;;8.90;99.90;;;;;;5053340;28;20457;-79
2023/01/07 03:45:31;;;;;;;0.40;0.30;;;8.90;99.90;;;;;;5054756;28;20466;-78
2023/01/07 03:47:58;;;;;;;0.50;0.30;;;8.90;99.90;;;;;;5056968;28;20215;-79
2023/01/07 03:50:25;;;;;;;0.40;0.30;;;8.80;99.90;;;;;;5057112;28;20451;-78
2023/01/07 03:52:53;;;;;;;0.50;0.30;;;8.80;99.90;;;;;;5057104;28;20446;-79
2023/01/07 03:55:19;;;;;;;0.30;0.30;;;8.80;99.90;;;;;;5057454;28;20474;-78
2023/01/07 03:57:46;;;;;;;0.30;0.27;;;8.80;99.90;;;;;;5057158;28;20454;-79
2023/01/07 04:00:14;;;;;;;0.50;0.50;;;8.80;99.90;;;;;;5056559;28;21111;-79
2023/01/07 04:02:41;;;;;;;1.10;0.30;;;8.80;99.90;;;;;;5056921;28;20460;-78
2023/01/07 04:05:09;;;;;;;0.30;0.20;;;8.80;99.90;;;;;;5056915;28;20470;-78
2023/01/07 04:07:36;;;;;;;0.30;0.30;;;8.80;99.90;;;;;;5056829;28;20430;-79
2023/01/07 04:10:05;;;;;;;0.30;0.30;;;8.80;99.90;;;;;;5056855;28;20446;-78
2023/01/07 04:12:31;;;;;;;0.30;0.30;;;8.80;99.90;;;;;;5056596;28;20450;-79
2023/01/07 04:14:58;;;;;;;0.40;0.40;;;8.80;99.90;;;;;;5056618;28;20732;-79
2023/01/07 04:17:25;;;;;;;1.17;0.30;;;8.70;99.90;;;;;;5056385;28;20446;-79
2023/01/07 04:19:52;;;;;;;0.37;0.30;;;8.70;99.90;;;;;;5056808;28;20493;-79
2023/01/07 04:22:19;;;;;;;0.40;0.40;;;8.70;99.90;;;;;;5056643;28;20442;-78
2023/01/07 04:24:45;;;;;;;0.47;0.30;;;8.70;99.90;;;;;;5056535;28;20462;-78
2023/01/07 04:27:13;;;;;;;0.30;0.30;;;8.70;99.90;;;;;;5056724;28;20454;-78
2023/01/07 04:29:40;;;;;;;0.80;0.40;;;8.70;99.90;;;;;;5056585;28;20537;-79
2023/01/07 04:32:07;;;;;;;0.60;0.47;;;8.70;99.90;;;;;;5056343;28;20442;-79
2023/01/07 04:34:34;;;;;;;0.40;0.30;;;8.70;99.90;;;;;;5055958;28;20977;-79
2023/01/07 04:37:00;;;;;;;0.40;0.40;;;8.70;99.90;;;;;;5056002;28;20450;-78
2023/01/07 04:39:27;;;;;;;1.37;0.40;;;8.80;99.90;;;;;;5056475;28;20478;-79
2023/01/07 04:41:54;;;;;;;0.40;0.40;;;8.70;99.90;;;;;;5056242;28;20450;-79
2023/01/07 04:44:22;;;;;;;0.43;0.33;;;8.70;99.90;;;;;;5056354;28;20466;-79
2023/01/07 04:46:49;;;;;;;0.97;0.40;;;8.70;99.90;;;;;;5056099;28;20454;-79
2023/01/07 04:49:15;;;;;;;0.80;0.80;;;8.70;99.90;;;;;;5056122;28;20449;-79
2023/01/07 04:51:42;;;;;;;0.40;0.30;;;8.70;99.90;;;;;;5056000;28;20528;-79
2023/01/07 04:54:09;;;;;;;0.40;0.30;;;8.70;99.90;;;;;;5056210;28;20458;-79
2023/01/07 04:56:36;;;;;;;0.30;0.20;;;8.70;99.90;;;;;;5055033;28;20454;-78
2023/01/07 04:59:02;;;;;;;0.37;0.37;;;8.70;99.90;;;;;;5055855;28;20450;-79
2023/01/07 05:01:31;;;;;;;0.70;0.50;;;8.70;99.90;;;;;;5056040;28;20447;-79
2023/01/07 05:03:58;;;;;;;2.57;0.70;;;8.70;99.90;;;;;;5055480;28;21004;-79
2023/01/07 05:06:25;;;;;;;0.30;0.30;;;8.60;99.90;;;;;;5055780;28;20454;-79
2023/01/07 05:08:52;;;;;;;0.50;0.40;;;8.60;99.90;;;;;;5055760;28;20451;-79
2023/01/07 05:11:20;;;;;;;0.30;0.30;;;8.60;99.90;;;;;;5055627;28;20528;-79
2023/01/07 05:13:48;;;;;;;0.40;0.40;;;8.60;99.90;;;;;;5055416;28;20527;-78
2023/01/07 05:16:15;;;;;;;0.40;0.40;;;8.60;99.90;;;;;;5055695;28;20476;-78
2023/01/07 05:18:43;;;;;;;0.30;0.30;;;8.60;99.90;;;;;;5055577;28;20459;-79
2023/01/07 05:21:11;;;;;;;0.50;0.40;;;8.60;99.90;;;;;;5055636;28;20494;-79
2023/01/07 05:23:38;;;;;;;0.60;0.40;;;8.60;99.90;;;;;;5055390;28;20877;-79
2023/01/07 05:26:04;;;;;;;0.60;0.40;;;8.60;99.90;;;;;;5055330;28;20446;-78
2023/01/07 05:28:31;;;;;;;0.30;0.30;;;8.50;99.90;;;;;;5055296;28;20454;-78
2023/01/07 05:30:58;;;;;;;0.43;0.43;;;8.50;99.90;;;;;;5055551;28;20438;-79
2023/01/07 05:33:25;;;;;;;0.40;0.40;;;8.50;99.90;;;;;;5055269;28;20454;-79
2023/01/07 05:35:53;;;;;;;1.17;0.40;;;8.50;99.90;;;;;;5055059;28;20471;-79
2023/01/07 05:38:19;;;;;;;0.70;0.30;;;8.50;99.90;;;;;;5055232;28;20435;-78
2023/01/07 05:40:47;;;;;;;0.40;0.30;;;8.50;99.90;;;;;;5055010;28;20855;-79
2023/01/07 05:43:14;;;;;;;0.60;0.30;;;8.40;99.90;;;;;;5055031;28;20442;-79
2023/01/07 05:45:43;;;;;;;0.83;0.60;;;8.40;99.90;;;;;;5054985;28;20466;-79
2023/01/07 05:48:10;;;;;;;0.40;0.30;;;8.50;99.90;;;;;;5055064;28;20814;-79
2023/01/07 05:50:36;;;;;;;0.40;0.40;;;8.40;99.90;;;;;;5054637;28;20454;-79
2023/01/07 05:53:04;;;;;;;0.50;0.50;;;8.40;99.90;;;;;;5054737;28;20446;-78
2023/01/07 05:55:31;;;;;;;0.37;0.30;;;8.40;99.90;;;;;;5054785;28;20469;-78
2023/01/07 05:57:58;;;;;;;0.40;0.37;;;8.50;99.90;;;;;;5054762;28;20455;-79
2023/01/07 06:00:25;;;;;;;0.40;0.30;;;8.50;99.90;;;;;;5054653;28;20483;-79
2023/01/07 06:02:51;;;;;;;0.40;0.40;;;8.40;99.90;;;;;;5054943;28;20451;-78
2023/01/07 06:05:18;;;;;;;0.30;0.30;;;8.40;99.90;;;;;;5054557;28;20470;-79
2023/01/07 06:07:45;;;;;;;0.77;0.77;;;8.40;99.90;;;;;;5054065;28;20808;-78
2023/01/07 06:10:14;;;;;;;0.40;0.30;;;8.30;99.90;;;;;;5054515;28;20442;-79
2023/01/07 06:12:41;;;;;;;0.50;0.33;;;8.30;99.90;;;;;;5054318;28;20462;-79
2023/01/07 06:15:08;;;;;;;0.87;0.40;;;8.30;99.90;;;;;;5054392;28;20493;-79
2023/01/07 06:17:35;;;;;;;0.30;0.30;;;8.30;99.90;;;;;;5054209;28;20842;-79
2023/01/07 06:20:02;;;;;;;0.60;0.60;;;8.20;99.90;;;;;;5054510;28;20486;-78
2023/01/07 06:22:29;;;;;;;1.00;0.40;;;8.20;99.90;;;;;;5054332;28;20463;-79
2023/01/07 06:24:55;;;;;;;1.00;0.40;;;8.30;99.90;;;;;;5054213;28;20840;-79
2023/01/07 06:27:23;;;;;;;0.50;0.40;;;8.20;99.90;;;;;;5054145;28;20965;-79
2023/01/07 06:29:50;;;;;;;0.40;0.30;;;8.20;99.90;;;;;;5054128;28;20458;-79
2023/01/07 06:32:17;;;;;;;0.93;0.33;;;8.20;99.90;;;;;;5054105;28;20461;-79
2023/01/07 06:34:44;;;;;;;0.43;0.43;;;8.20;99.90;;;;;;5053975;28;20477;-78
2023/01/07 06:37:10;;;;;;;0.30;0.30;;;8.20;99.90;;;;;;5054018;28;20450;-79
2023/01/07 06:39:37;;;;;;;0.40;0.40;;;8.30;99.90;;;;;;5053962;28;20453;-79
2023/01/07 06:42:04;;;;;;;0.40;0.40;;;8.30;99.90;;;;;;5053911;28;20450;-79
2023/01/07 06:44:32;;;;;;;0.47;0.30;;;8.30;99.90;;;;;;5053869;28;20477;-78
2023/01/07 06:46:59;;;;;;;0.40;0.30;;;8.30;99.90;;;;;;5053805;28;20446;-78
2023/01/07 06:49:26;;;;;;;1.10;0.43;;;8.30;99.90;;;;;;5053799;28;20450;-79
2023/01/07 06:51:52;;;;;;;0.63;0.40;;;8.40;99.90;;;;;;5053818;28;20442;-78
2023/01/07 06:54:19;;;;;;;0.30;0.30;;;8.40;99.90;;;;;;5053751;28;20466;-79
2023/01/07 06:56:46;;;;;;;0.40;0.40;;;8.40;99.90;;;;;;5053665;28;20469;-79
2023/01/07 06:59:13;;;;;;;0.40;0.30;;;8.30;99.90;;;;;;5053687;28;20419;-78
2023/01/07 07:01:41;;;;;;;0.40;0.30;;;8.30;99.90;;;;;;5053545;28;20486;-78
2023/01/07 07:04:08;;;;;;;0.60;0.30;;;8.30;99.90;;;;;;5053569;28;20469;-78
2023/01/07 07:06:34;;;;;;;0.30;0.30;;;8.30;99.90;;;;;;5054027;28;20562;-84
2023/01/07 07:09:01;;;;;;;0.30;0.30;;;8.30;99.90;;;;;;5053770;28;20455;-84
2023/01/07 07:11:28;;;;;;;0.30;0.30;;;8.30;99.90;;;;;;5053601;28;20442;-84
2023/01/07 07:13:55;;;;;;;0.50;0.40;;;8.40;99.90;;;;;;5053069;28;20486;-84
2023/01/07 07:16:22;;;;;;;0.40;0.30;;;8.40;99.90;;;;;;5053411;28;20458;-84
2023/01/07 07:18:51;;;;;;;0.50;0.50;;;8.40;99.90;;;;;;5053601;28;20454;-84
2023/01/07 07:21:17;;;;;;;0.30;0.20;;;8.40;99.90;;;;;;5052470;28;20490;-84
2023/01/07 07:23:44;;;;;;;0.60;0.60;;;8.30;99.90;;;;;;5053565;28;20458;-84
2023/01/07 07:26:11;;;;;;;0.30;0.30;;;8.30;99.90;;;;;;5053574;28;20455;-84
2023/01/07 07:28:38;;;;;;;0.30;0.30;;;8.30;99.90;;;;;;5053397;28;20913;-84
2023/01/07 07:31:05;;;;;;;0.30;0.27;;;8.40;99.90;;;;;;5053354;28;20817;-84
2023/01/07 07:33:31;;;;;;;0.40;0.30;;;8.40;99.90;;;;;;5052987;28;20938;-84
2023/01/07 07:36:00;;;;;;;0.30;0.30;;;8.40;99.90;;;;;;5053333;28;20458;-84
2023/01/07 07:38:26;;;;;;;0.43;0.40;;;8.40;99.90;;;;;;5053317;28;20456;-85
2023/01/07 07:40:55;;;;;;;0.60;0.60;;;8.30;99.90;;;;;;5053030;28;21009;-84
2023/01/07 07:43:22;;;;;;;0.30;0.30;;;8.40;99.90;;;;;;5053190;28;20454;-85
2023/01/07 07:45:49;;;;;;;0.50;0.40;;;8.40;99.90;;;;;;5053259;28;20470;-84
2023/01/07 07:48:16;;;;;;;0.30;0.30;;;8.40;99.90;;;;;;5053294;28;20537;-84
2023/01/07 07:50:43;;;;;;;0.50;0.50;;;8.40;99.90;;;;;;5053207;28;20459;-84
2023/01/07 07:53:11;;;;;;;1.13;0.47;;;8.40;99.90;;;;;;5053355;28;20442;-84
2023/01/07 07:55:38;;;;;;;0.67;0.33;;;8.40;99.90;;;;;;5053148;28;20466;-84
2023/01/07 07:58:05;;;;;;;0.50;0.30;;;8.40;99.90;;;;;;5052757;28;20454;-84
2023/01/07 08:00:32;;;;;;;0.50;0.30;;;8.40;99.90;;;;;;5053075;28;20851;-84
2023/01/07 08:02:59;;;;;;;0.30;0.30;;;8.40;99.90;;;;;;5052947;28;20442;-85
2023/01/07 08:05:26;;;;;;;0.40;0.30;;;8.40;99.90;;;;;;5052997;28;20497;-85
2023/01/07 08:07:54;;;;;;;0.43;0.37;;;8.40;99.90;;;;;;5052830;28;20798;-85
2023/01/07 08:10:23;;;;;;;0.40;0.37;;;8.50;99.90;;;;;;5052634;28;21012;-84
2023/01/07 08:12:50;;;;;;;1.07;0.30;;;8.50;99.90;;;;;;5052581;28;20489;-84
2023/01/07 08:15:17;;;;;;;0.30;0.23;;;8.50;99.90;;;;;;5053291;28;20524;-84
2023/01/07 08:17:44;;;;;;;0.50;0.50;;;8.50;99.90;;;;;;5052974;28;20462;-84
2023/01/07 08:20:12;;;;;;;1.27;0.30;;;8.50;99.90;;;;;;5052819;28;20776;-84
2023/01/07 08:22:39;;;;;;;0.40;0.30;;;8.50;99.90;;;;;;5052852;28;20477;-84
2023/01/07 08:25:06;;;;;;;0.30;0.30;;;8.50;99.90;;;;;;5053199;28;20812;-84
2023/01/07 08:27:34;;;;;;;0.60;0.60;;;8.60;99.90;;;;;;5052545;28;20972;-84
2023/01/07 08:30:01;;;;;;;0.30;0.30;;;8.60;99.90;;;;;;5053395;28;20450;-84
2023/01/07 08:32:28;;;;;;;0.67;0.30;;;8.60;99.90;;;;;;5055771;28;20452;-84
2023/01/07 08:34:56;;;;;;;0.97;0.47;;;8.60;99.90;;;;;;5056245;28;20474;-84
2023/01/07 08:37:23;;;;;;;0.40;0.30;;;8.60;99.90;;;;;;5056570;28;20461;-85
2023/01/07 08:39:49;;;;;;;0.60;0.40;;;8.60;99.90;;;;;;5056165;28;20950;-85
2023/01/07 08:42:16;;;;;;;0.43;0.43;;;8.60;99.90;;;;;;5056468;28;20466;-85
2023/01/07 08:44:44;;;;;;;0.30;0.30;;;8.60;99.90;;;;;;5056215;28;20998;-85
2023/01/07 08:47:11;;;;;;;0.90;0.40;;;8.60;99.90;;;;;;5056391;28;20437;-85
2023/01/07 08:49:38;;;;;;;0.33;0.33;;;8.70;99.90;;;;;;5056468;28;20442;-85
2023/01/07 08:52:05;;;;;;;0.40;0.30;;;8.70;99.90;;;;;;5056306;28;20431;-84
2023/01/07 08:54:32;;;;;;;0.40;0.40;;;8.80;99.90;;;;;;5056656;28;20470;-84
2023/01/07 08:56:59;;;;;;;0.30;0.30;;;8.80;99.90;;;;;;5056202;28;20450;-84
2023/01/07 08:59:26;;;;;;;0.30;0.27;;;8.80;99.90;;;;;;5056551;28;20438;-85
2023/01/07 09:01:54;;;;;;;0.50;0.40;;;8.90;99.90;;;;;;5056314;28;20493;-85
2023/01/07 09:04:20;;;;;;;0.80;0.50;;;8.90;99.90;;;;;;5055956;28;20462;-85
2023/01/07 09:06:47;;;;;;;7.10;0.40;;;8.90;99.90;;;;;;5055947;28;20450;-84
2023/01/07 09:09:15;;;;;;;0.50;0.50;;;8.90;99.90;;;;;;5055580;28;20941;-85
2023/01/07 09:11:42;;;;;;;0.40;0.40;;;9.00;99.90;;;;;;5055618;28;20443;-85
2023/01/07 09:14:09;;;;;;;0.40;0.30;;;9.00;99.90;;;;;;5055319;28;20494;-84
2023/01/07 09:16:35;;;;;;;1.67;0.50;;;8.90;99.90;;;;;;5056157;28;20451;-85
2023/01/07 09:19:04;;;;;;;0.40;0.40;;;9.00;99.90;;;;;;5055826;28;20446;-85
2023/01/07 09:21:31;;;;;;;0.30;0.30;;;9.10;99.90;;;;;;5055626;28;20493;-85
2023/01/07 09:23:58;;;;;;;0.43;0.43;;;9.20;99.90;;;;;;5055243;28;20560;-84
2023/01/07 09:26:25;;;;;;;0.70;0.40;;;9.30;99.90;;;;;;5055224;28;20455;-84
2023/01/07 09:28:51;;;;;;;1.30;0.50;;;9.40;99.90;;;;;;5055481;28;20455;-85
2023/01/07 09:31:18;;;;;;;0.80;0.40;;;9.50;99.90;;;;;;5055550;28;20451;-84
2023/01/07 09:33:45;;;;;;;0.80;0.67;;;9.60;99.90;;;;;;5055385;28;20461;-85
2023/01/07 09:36:13;;;;;;;0.40;0.30;;;9.60;99.90;;;;;;5055333;28;20457;-85
2023/01/07 09:38:40;;;;;;;1.27;0.70;;;9.60;99.90;;;;;;5055022;28;20450;-85
2023/01/07 09:41:20;;;;;;;0.73;0.50;;;9.60;99.90;;;;;;5055346;28;20493;-85
2023/01/07 09:43:54;;;;;;;0.40;0.30;;;9.70;99.90;;;;;;5054664;28;20458;-85
2023/01/07 09:46:22;;;;;;;0.40;0.40;;;9.70;99.90;;;;;;5055263;28;20848;-85
2023/01/07 09:48:55;;;;;;;2.30;0.50;;;9.60;99.90;;;;;;5055167;28;20451;-85
2023/01/07 09:51:28;;;;;;;1.23;0.73;;;9.60;99.90;;;;;;5055646;28;20466;-85
2023/01/07 09:53:59;;;;;;;0.50;0.50;;;9.70;99.90;;;;;;5054956;28;20470;-85
2023/01/07 09:56:29;;;;;;;0.43;0.43;;;10.10;99.90;;;;;;5055057;28;20426;-85
2023/01/07 09:58:58;;;;;;;0.40;0.40;;;10.70;99.90;;;;;;5055022;28;20454;-85
2023/01/07 10:01:32;;;;;;;0.40;0.33;;;11.70;99.90;;;;;;5054751;28;20490;-85
2023/01/07 10:04:15;;;;;;;0.60;0.33;;;12.70;99.90;;;;;;5054877;28;20469;-85
2023/01/07 10:06:50;;;;;;;0.70;0.50;;;13.80;99.90;;;;;;5055509;28;20446;-85
2023/01/07 10:09:26;;;;;;;1.87;1.10;;;14.70;99.90;;;;;;5055061;28;20438;-84
2023/01/07 10:12:01;;;;;;;0.67;0.67;;;15.90;99.90;;;;;;5054919;28;20902;-84
2023/01/07 10:14:51;;;;;;;1.50;0.50;;;16.80;99.90;;;;;;5054216;28;20535;-85
2023/01/07 10:17:29;;;;;;;0.83;0.50;;;17.20;99.90;;;;;;5054590;28;20430;-85
2023/01/07 10:20:02;;;;;;;1.80;0.97;;;17.30;99.90;;;;;;5055017;28;20442;-85
2023/01/07 10:22:35;;;;;;;0.90;0.50;;;16.90;99.90;;;;;;5054476;28;20474;-86
2023/01/07 10:25:05;;;;;;;2.10;0.87;;;15.80;99.90;;;;;;5054454;28;20480;-85
2023/01/07 10:27:36;;;;;;;2.70;0.70;;;14.70;99.90;;;;;;5054803;28;20808;-86
2023/01/07 10:30:11;;;;;;;0.73;0.70;;;13.80;99.90;;;;;;5054500;28;20805;-84
2023/01/07 10:32:38;;;;;;;0.80;0.70;;;13.30;99.90;;;;;;5054783;28;20430;-85
2023/01/07 10:35:13;;;;;;;1.63;0.50;;;13.00;99.90;;;;;;5054527;28;20481;-86
2023/01/07 10:37:43;;;;;;;0.50;0.50;;;12.80;99.90;;;;;;5054364;28;20488;-86
2023/01/07 10:40:31;;;;;;;2.40;0.67;;;12.60;99.90;;;;;;5054579;28;20439;-86
2023/01/07 10:43:02;;;;;;;1.90;0.70;;;12.30;99.90;;;;;;5054231;28;20973;-86
2023/01/07 10:45:48;;;;;;;0.90;0.90;;;12.00;99.90;;;;;;5054333;28;20453;-86
2023/01/07 10:48:43;;;;;;;0.50;0.50;;;11.80;99.90;;;;;;5054402;28;20435;-86
2023/01/07 10:51:27;;;;;;;1.17;0.60;;;11.60;99.90;;;;;;5054665;28;20422;-86
2023/01/07 10:54:02;;;;;;;0.53;0.53;;;11.40;99.90;;;;;;5054264;28;20470;-86
2023/01/07 10:56:31;;;;;;;0.93;0.50;;;11.20;99.90;;;;;;5054248;28;20456;-84
2023/01/07 10:58:59;;;;;;;0.80;0.80;;;11.00;99.90;;;;;;5061134;28;20802;-85
2023/01/07 11:01:28;;;;;;;0.77;0.57;;;10.90;99.90;;;;;;5063988;28;20509;-85
2023/01/07 11:03:56;;;;;;;1.03;0.70;;;10.80;99.90;;;;;;5067135;28;20467;-85
2023/01/07 11:06:36;;;;;;;0.50;0.40;;;10.90;99.90;;;;;;5058357;28;20458;-85
2023/01/07 11:09:09;;;;;;;0.97;0.50;;;10.80;99.90;;;;;;5054414;28;20438;-86
2023/01/07 11:11:37;;;;;;;1.13;0.50;;;10.70;99.90;;;;;;5053995;28;20434;-86
2023/01/07 11:14:10;;;;;;;0.73;0.40;;;10.60;99.90;;;;;;5053470;28;20470;-85
2023/01/07 11:16:42;;;;;;;2.03;1.33;;;10.50;99.90;;;;;;5053842;28;20449;-85
2023/01/07 11:19:10;;;;;;;0.60;0.47;;;10.40;99.90;;;;;;5053646;28;20521;-85
2023/01/07 11:21:40;;;;;;;2.93;1.27;;;10.40;99.90;;;;;;5053527;28;20493;-86
2023/01/07 11:24:30;;;;;;;1.10;0.50;;;10.30;99.90;;;;;;5054031;28;20475;-85
2023/01/07 11:27:03;;;;;;;0.40;0.33;;;10.20;99.90;;;;;;5053308;28;20407;-88
2023/01/07 11:29:36;;;;;;;1.30;0.80;;;10.30;99.90;;;;;;5053599;28;20454;-86
2023/01/07 11:32:04;;;;;;;0.60;0.50;;;10.30;99.90;;;;;;5053651;28;20920;-86
2023/01/07 11:34:34;;;;;;;1.47;0.60;;;10.20;99.90;;;;;;5053452;28;21005;-87
2023/01/07 11:37:02;;;;;;;1.93;0.70;;;10.10;99.90;;;;;;5053645;28;20442;-86
2023/01/07 11:39:33;;;;;;;1.70;0.60;;;10.10;99.90;;;;;;5053679;28;20435;-86
2023/01/07 11:42:37;;;;;;;0.60;0.60;;;10.00;99.90;;;;;;5053474;28;20474;-86
2023/01/07 11:44:47;;;;;;;0.30;0.30;;;10.00;99.90;;;;;;5052959;28;20467;-86
2023/01/07 11:47:15;;;;;;;1.83;0.77;;;10.10;99.90;;;;;;5053098;28;20911;-86
2023/01/07 11:49:45;;;;;;;5.73;1.20;;;10.10;99.90;;;;;;5053278;28;20457;-85
2023/01/07 11:52:18;;;;;;;0.90;0.90;;;10.10;99.90;;;;;;5053413;28;20457;-86
2023/01/07 11:54:50;;;;;;;1.07;0.67;;;10.20;99.90;;;;;;5052948;28;21029;-86
2023/01/07 11:57:22;;;;;;;1.63;0.70;;;10.20;99.90;;;;;;5054077;28;20522;-86
2023/01/07 12:00:06;;;;;;;0.50;0.40;;;10.10;99.90;;;;;;5053207;28;20438;-86
2023/01/07 12:02:32;;;;;;;0.80;0.80;;;10.10;99.90;;;;;;5053277;28;20474;-86
2023/01/07 12:05:19;;;;;;;1.23;0.60;;;10.10;99.90;;;;;;5053235;28;20596;-86
2023/01/07 12:07:47;;;;;;;0.50;0.50;;;10.00;99.90;;;;;;5056635;28;20410;-86
2023/01/07 12:10:31;;;;;;;0.40;0.40;;;10.00;99.90;;;;;;5057318;28;20446;-86
2023/01/07 12:12:59;;;;;;;2.20;0.63;;;10.00;99.90;;;;;;5056848;28;20481;-86
2023/01/07 12:15:28;;;;;;;0.40;0.40;;;9.90;99.90;;;;;;5056755;28;20471;-85
2023/01/07 12:18:30;;;;;;;0.70;0.70;;;9.90;99.90;;;;;;5056742;28;20510;-87
2023/01/07 12:21:29;;;;;;;0.83;0.60;;;9.90;99.90;;;;;;5032314;28;20456;-86
2023/01/07 12:24:07;;;;;;;0.70;0.47;;;9.80;99.90;;;;;;5053003;28;21051;-86
2023/01/07 12:26:41;;;;;;;1.90;0.50;;;9.80;99.90;;;;;;5057032;28;20426;-86
2023/01/07 12:29:22;;;;;;;0.43;0.43;;;9.80;99.90;;;;;;5056524;28;20917;-86
2023/01/07 12:32:04;;;;;;;1.03;0.40;;;9.70;99.90;;;;;;5057021;28;20434;-86
2023/01/07 12:34:40;;;;;;;0.40;0.40;;;9.70;99.90;;;;;;5056763;28;20470;-86
2023/01/07 12:37:13;;;;;;;0.60;0.30;;;9.60;99.90;;;;;;5056708;28;20410;-87
2023/01/07 12:39:44;;;;;;;0.40;0.40;;;9.60;99.90;;;;;;5056806;28;20441;-85
2023/01/07 12:42:16;;;;;;;0.80;0.50;;;9.60;99.90;;;;;;5056538;28;21042;-85
2023/01/07 12:44:48;;;;;;;0.70;0.30;;;9.60;99.90;;;;;;5056827;28;20478;-86
2023/01/07 12:47:18;;;;;;;1.67;0.57;;;9.60;99.90;;;;;;5056076;28;20909;-86
2023/01/07 12:49:50;;;;;;;1.00;0.80;;;9.60;99.90;;;;;;5056288;28;20451;-85
2023/01/07 12:52:23;;;;;;;0.50;0.50;;;9.70;99.90;;;;;;5055917;28;20441;-85
2023/01/07 12:54:54;;;;;;;0.43;0.43;;;9.70;99.90;;;;;;5055968;28;20439;-86
2023/01/07 12:57:27;;;;;;;1.53;0.57;;;9.70;99.90;;;;;;5056510;28;20435;-86
2023/01/07 13:00:04;;;;;;;3.13;0.53;;;9.70;99.90;;;;;;5056358;28;20441;-85
2023/01/07 13:02:38;;;;;;;0.60;0.50;;;9.70;99.90;;;;;;5056078;28;20470;-85
2023/01/07 13:05:12;;;;;;;0.77;0.53;;;9.70;99.90;;;;;;5056058;28;20467;-85
2023/01/07 13:07:47;;;;;;;0.80;0.50;;;9.70;99.90;;;;;;5056081;28;20442;-85
2023/01/07 13:10:19;;;;;;;2.10;0.60;;;9.70;99.90;;;;;;5056083;28;20422;-85
2023/01/07 13:12:49;;;;;;;0.67;0.67;;;9.60;99.90;;;;;;5055545;28;20422;-85